createdAt,value
2022-09-07T00:00:16.114Z,76.11
2022-09-07T00:02:45.959Z,76.30
2022-09-07T00:05:15.799Z,76.12
2022-09-07T00:07:45.587Z,74.08
2022-09-07T00:10:15.124Z,74.19
2022-09-07T00:12:44.900Z,73.20
2022-09-07T00:15:15.002Z,73.19
2022-09-07T00:17:44.777Z,73.92
2022-09-07T00:20:15.012Z,72.36
2022-09-07T00:22:46.151Z,73.23
2022-09-07T00:25:16.072Z,75.76
2022-09-07T00:27:45.597Z,75.26
2022-09-07T00:30:16.380Z,75.26
2022-09-07T00:32:46.315Z,75.17
2022-09-07T00:35:16.405Z,73.43
2022-09-07T00:37:46.179Z,73.51
2022-09-07T00:40:17.621Z,72.68
2022-09-07T00:42:47.396Z,72.56
2022-09-07T00:45:22.409Z,72.12
2022-09-07T00:48:00.746Z,71.97
2022-09-07T00:50:39.448Z,71.97
2022-09-07T00:53:29.920Z,72.11
2022-09-07T00:56:02.034Z,72.15
2022-09-07T00:58:34.056Z,72.46
2022-09-07T01:01:03.917Z,72.05
2022-09-07T01:03:36.409Z,72.74
2022-09-07T01:06:20.623Z,72.64
2022-09-07T01:08:51.412Z,72.81
2022-09-07T01:11:23.826Z,72.77
2022-09-07T01:13:54.736Z,72.52
2022-09-07T01:16:49.417Z,71.89
2022-09-07T01:19:31.085Z,72.36
2022-09-07T01:22:13.026Z,71.56
2022-09-07T01:24:48.296Z,72.16
2022-09-07T01:27:48.083Z,71.63
2022-09-07T01:30:20.918Z,72.67
2022-09-07T01:33:02.860Z,72.03
2022-09-07T01:35:44.111Z,72.68
2022-09-07T01:38:27.343Z,72.19
2022-09-07T01:41:12.168Z,72.26
2022-09-07T01:43:50.744Z,72.72
2022-09-07T01:46:29.306Z,72.99
2022-09-07T01:49:11.094Z,72.52
2022-09-07T01:51:43.904Z,73.05
2022-09-07T01:54:18.111Z,73.12
2022-09-07T01:56:51.095Z,72.29
2022-09-07T01:59:26.280Z,72.15
2022-09-07T02:02:13.639Z,72.56
2022-09-07T02:04:52.046Z,73.00
2022-09-07T02:07:27.278Z,73.20
2022-09-07T02:10:02.513Z,73.18
2022-09-07T02:12:37.425Z,73.10
2022-09-07T02:15:11.415Z,72.93
2022-09-07T02:17:46.760Z,72.61
2022-09-07T02:20:21.739Z,73.36
2022-09-07T02:22:54.618Z,73.44
2022-09-07T02:25:27.311Z,73.78
2022-09-07T02:28:00.117Z,72.65
2022-09-07T02:30:29.685Z,72.46
2022-09-07T02:32:59.446Z,72.33
2022-09-07T02:35:29.856Z,72.43
2022-09-07T02:38:03.487Z,72.43
2022-09-07T02:40:33.690Z,72.43
2022-09-07T02:43:06.651Z,73.27
2022-09-07T02:46:00.305Z,73.36
2022-09-07T02:48:36.009Z,73.64
2022-09-07T02:51:11.030Z,73.45
2022-09-07T02:54:03.169Z,72.68
2022-09-07T02:56:44.473Z,72.88
2022-09-07T02:59:32.173Z,72.03
2022-09-07T03:02:30.252Z,72.48
2022-09-07T03:05:14.861Z,72.96
2022-09-07T03:08:05.673Z,72.51
2022-09-07T03:10:36.985Z,72.39
2022-09-07T03:13:07.195Z,72.46
2022-09-07T03:15:37.016Z,73.12
2022-09-07T03:18:08.567Z,72.11
2022-09-07T03:20:38.322Z,72.11
2022-09-07T03:23:08.154Z,72.08
2022-09-07T03:25:38.516Z,72.76
2022-09-07T03:28:08.785Z,72.76
2022-09-07T03:30:40.164Z,73.39
2022-09-07T03:33:09.983Z,73.39
2022-09-07T03:35:39.744Z,72.62
2022-09-07T03:38:10.876Z,72.22
2022-09-07T03:40:40.927Z,72.17
2022-09-07T03:43:10.704Z,72.47
2022-09-07T03:45:40.579Z,72.81
2022-09-07T03:48:11.476Z,72.77
2022-09-07T03:50:41.233Z,71.61
2022-09-07T03:53:11.002Z,72.52
2022-09-07T03:55:40.847Z,73.02
2022-09-07T03:58:11.481Z,73.19
2022-09-07T04:00:43.073Z,71.75
2022-09-07T04:03:12.837Z,72.28
2022-09-07T04:05:42.592Z,73.37
2022-09-07T04:08:13.065Z,72.93
2022-09-07T04:10:43.392Z,72.86
2022-09-07T04:13:13.464Z,72.83
2022-09-07T04:15:42.932Z,71.94
2022-09-07T04:18:13.137Z,72.17
2022-09-07T04:20:42.974Z,73.00
2022-09-07T04:23:13.502Z,73.15
2022-09-07T04:25:53.305Z,73.04
2022-09-07T04:28:23.066Z,73.25
2022-09-07T04:30:52.905Z,73.51
2022-09-07T04:33:22.988Z,74.24
2022-09-07T04:35:52.755Z,74.22
2022-09-07T04:38:22.365Z,74.22
2022-09-07T04:40:53.660Z,74.46
2022-09-07T04:43:23.554Z,75.17
2022-09-07T04:45:53.352Z,75.17
2022-09-07T04:48:23.192Z,74.69
2022-09-07T04:50:53.254Z,75.22
2022-09-07T04:53:23.019Z,75.00
2022-09-07T04:55:52.857Z,75.14
2022-09-07T04:58:22.632Z,73.96
2022-09-07T05:00:52.459Z,75.26
2022-09-07T05:03:22.520Z,75.24
2022-09-07T05:05:52.285Z,75.89
2022-09-07T05:08:22.057Z,75.59
2022-09-07T05:10:56.643Z,75.90
2022-09-07T05:13:26.415Z,76.40
2022-09-07T05:15:56.225Z,76.40
2022-09-07T05:18:26.263Z,76.40
2022-09-07T05:20:56.329Z,76.38
2022-09-07T05:23:26.172Z,76.07
2022-09-07T05:25:55.943Z,76.95
2022-09-07T05:28:25.708Z,77.58
2022-09-07T05:35:59.561Z,77.85
2022-09-07T05:38:29.878Z,78.41
2022-09-07T05:40:59.727Z,78.54
2022-09-07T05:43:30.897Z,77.90
2022-09-07T05:46:00.738Z,77.49
2022-09-07T05:48:31.198Z,77.68
2022-09-07T05:51:01.128Z,78.45
2022-09-07T05:53:31.233Z,78.82
2022-09-07T05:56:06.461Z,77.76
2022-09-07T05:58:33.364Z,77.49
2022-09-07T06:01:06.325Z,77.64
2022-09-07T06:03:40.581Z,77.52
2022-09-07T06:06:12.675Z,77.19
2022-09-07T06:08:47.761Z,76.71
2022-09-07T06:11:23.310Z,76.72
2022-09-07T06:13:53.470Z,76.72
2022-09-07T06:16:23.242Z,75.86
2022-09-07T06:18:53.126Z,76.15
2022-09-07T06:21:24.601Z,76.19
2022-09-07T06:23:55.364Z,75.91
2022-09-07T06:26:24.841Z,76.02
2022-09-07T06:28:57.805Z,76.68
2022-09-07T06:31:26.271Z,76.42
2022-09-07T06:33:56.667Z,76.61
2022-09-07T06:36:28.196Z,76.12
2022-09-07T06:39:01.589Z,75.47
2022-09-07T06:44:04.831Z,76.04
2022-09-07T06:49:06.077Z,76.65
2022-09-07T06:51:35.860Z,77.49
2022-09-07T06:56:38.518Z,77.41
2022-09-07T06:59:08.566Z,76.71
2022-09-07T07:01:38.349Z,75.98
2022-09-07T07:04:08.139Z,74.47
2022-09-07T07:06:39.463Z,74.53
2022-09-07T07:09:11.631Z,74.83
2022-09-07T07:11:43.485Z,75.00
2022-09-07T07:14:15.393Z,75.78
2022-09-07T07:16:45.316Z,74.94
2022-09-07T07:19:15.243Z,75.24
2022-09-07T07:22:07.906Z,73.50
2022-09-07T07:24:16.606Z,73.50
2022-09-07T07:26:48.025Z,73.68
2022-09-07T07:29:18.914Z,74.00
2022-09-07T07:31:49.144Z,73.55
2022-09-07T07:34:19.015Z,73.55
2022-09-07T07:36:48.786Z,73.82
2022-09-07T07:41:54.453Z,73.49
2022-09-07T07:44:22.006Z,73.55
2022-09-07T07:46:52.491Z,73.55
2022-09-07T07:49:22.285Z,74.04
2022-09-07T07:54:24.729Z,72.52
2022-09-07T07:56:54.489Z,72.56
2022-09-07T07:59:24.235Z,72.54
2022-09-07T08:01:54.156Z,72.39
2022-09-07T08:04:24.013Z,71.42
2022-09-07T08:06:53.762Z,69.47
2022-09-07T08:09:23.579Z,69.45
2022-09-07T08:11:53.548Z,68.98
2022-09-07T08:14:23.396Z,69.02
2022-09-07T08:16:53.148Z,67.56
2022-09-07T08:19:22.895Z,66.28
2022-09-07T08:21:53.015Z,65.67
2022-09-07T08:24:22.681Z,65.96
2022-09-07T08:26:52.706Z,66.06
2022-09-07T08:29:22.444Z,66.81
2022-09-07T08:31:52.676Z,66.29
2022-09-07T08:34:22.569Z,65.35
2022-09-07T08:36:52.012Z,64.36
2022-09-07T08:39:21.832Z,64.48
2022-09-07T08:44:55.230Z,64.65
2022-09-07T08:47:48.999Z,63.60
2022-09-07T08:50:28.797Z,63.67
2022-09-07T08:53:04.545Z,64.54
2022-09-07T08:55:37.383Z,65.07
2022-09-07T08:58:47.630Z,65.89
2022-09-07T09:01:30.636Z,65.27
2022-09-07T09:03:33.053Z,63.65
2022-09-07T09:06:08.403Z,63.25
2022-09-07T09:08:50.097Z,62.14
2022-09-07T09:11:25.925Z,61.89
2022-09-07T09:14:14.831Z,62.68
2022-09-07T09:17:02.104Z,62.77
2022-09-07T09:20:01.424Z,61.25
2022-09-07T09:22:31.271Z,60.47
2022-09-07T09:25:06.718Z,60.47
2022-09-07T09:27:36.469Z,60.60
2022-09-07T09:30:17.952Z,60.47
2022-09-07T09:32:50.549Z,60.38
2022-09-07T09:35:29.752Z,57.23
2022-09-07T09:37:59.942Z,58.72
2022-09-07T09:40:32.713Z,57.88
2022-09-07T09:43:20.440Z,58.14
2022-09-07T09:48:36.084Z,57.04
2022-09-07T09:53:42.534Z,56.22
2022-09-07T09:56:12.234Z,55.80
2022-09-07T10:01:28.008Z,54.47
2022-09-07T10:04:01.355Z,55.57
2022-09-07T10:06:32.075Z,56.84
2022-09-07T10:09:05.010Z,55.71
2022-09-07T10:14:35.662Z,52.39
2022-09-07T10:17:32.302Z,52.32
2022-09-07T10:20:04.784Z,51.26
2022-09-07T10:22:37.030Z,50.64
2022-09-07T10:25:10.773Z,50.64
2022-09-07T10:27:40.860Z,50.48
2022-09-07T10:30:17.718Z,49.94
2022-09-07T10:32:55.978Z,49.84
2022-09-07T10:35:40.432Z,51.42
2022-09-07T10:38:25.813Z,50.87
2022-09-07T10:40:58.639Z,50.82
2022-09-07T10:43:49.801Z,49.88
2022-09-07T10:49:12.307Z,49.89
2022-09-07T10:51:44.811Z,49.91
2022-09-07T10:54:31.124Z,49.03
2022-09-07T10:57:06.954Z,48.49
2022-09-07T11:05:46.985Z,47.05
2022-09-07T11:08:19.729Z,45.75
2022-09-07T11:10:58.192Z,46.27
2022-09-07T11:13:31.290Z,47.91
2022-09-07T11:16:04.157Z,46.40
2022-09-07T11:18:41.972Z,47.31
2022-09-07T11:21:56.230Z,46.53
2022-09-07T11:23:57.791Z,45.71
2022-09-07T11:26:33.235Z,46.62
2022-09-07T11:31:42.380Z,45.29
2022-09-07T11:34:46.016Z,45.78
2022-09-07T11:37:33.428Z,45.36
2022-09-07T11:40:06.344Z,45.16
2022-09-07T11:42:43.489Z,43.26
2022-09-07T11:45:34.531Z,43.26
2022-09-07T11:48:19.574Z,42.26
2022-09-07T11:50:52.555Z,43.63
2022-09-07T11:53:31.339Z,44.24
2022-09-07T11:56:04.104Z,44.24
2022-09-07T11:58:53.262Z,42.69
2022-09-07T12:01:31.888Z,42.95
2022-09-07T12:04:15.847Z,43.02
2022-09-07T12:06:48.616Z,42.27
2022-09-07T12:09:37.472Z,42.27
2022-09-07T12:12:46.659Z,42.08
2022-09-07T12:15:26.751Z,42.43
2022-09-07T12:18:19.842Z,43.49
2022-09-07T12:20:50.482Z,42.97
2022-09-07T12:23:23.250Z,42.50
2022-09-07T12:25:53.595Z,41.35
2022-09-07T12:28:29.233Z,40.56
2022-09-07T12:31:04.460Z,42.22
2022-09-07T12:33:39.252Z,41.72
2022-09-07T12:36:32.663Z,41.26
2022-09-07T12:39:25.009Z,40.23
2022-09-07T12:44:40.518Z,39.60
2022-09-07T12:47:16.121Z,39.03
2022-09-07T12:50:06.175Z,39.64
2022-09-07T12:52:47.612Z,40.57
2022-09-07T12:58:23.787Z,39.95
2022-09-07T13:01:05.227Z,39.09
2022-09-07T13:03:50.247Z,39.09
2022-09-07T13:09:37.524Z,39.50
2022-09-07T13:14:59.650Z,39.30
2022-09-07T13:17:41.759Z,40.62
2022-09-07T13:20:21.034Z,40.76
2022-09-07T13:22:53.814Z,39.65
2022-09-07T13:25:29.596Z,40.02
2022-09-07T13:28:02.637Z,42.11
2022-09-07T13:30:47.272Z,40.84
2022-09-07T13:33:32.543Z,38.65
2022-09-07T13:36:05.121Z,37.69
2022-09-07T13:38:36.818Z,36.63
2022-09-07T13:41:14.973Z,37.11
2022-09-07T13:43:51.724Z,36.11
2022-09-07T13:46:42.019Z,36.11
2022-09-07T13:49:20.122Z,37.02
2022-09-07T13:52:07.735Z,37.38
2022-09-07T13:54:51.599Z,38.56
2022-09-07T13:57:33.247Z,39.27
2022-09-07T14:00:03.114Z,37.79
2022-09-07T14:02:37.474Z,37.92
2022-09-07T14:05:11.435Z,36.92
2022-09-07T14:07:44.221Z,35.98
2022-09-07T14:10:24.905Z,35.98
2022-09-07T14:13:08.580Z,34.55
2022-09-07T14:15:46.940Z,35.23
2022-09-07T14:18:19.358Z,34.14
2022-09-07T14:20:53.805Z,33.85
2022-09-07T14:23:35.526Z,33.76
2022-09-07T14:26:20.009Z,34.28
2022-09-07T14:28:52.449Z,33.42
2022-09-07T14:31:25.236Z,33.03
2022-09-07T14:33:57.539Z,33.06
2022-09-07T14:36:44.076Z,33.15
2022-09-07T14:39:09.780Z,33.51
2022-09-07T14:41:41.820Z,33.34
2022-09-07T14:44:35.432Z,33.25
2022-09-07T14:47:12.486Z,33.45
2022-09-07T14:49:43.637Z,33.32
2022-09-07T14:52:16.940Z,32.27
2022-09-07T14:54:49.698Z,32.72
2022-09-07T14:57:25.582Z,32.84
2022-09-07T14:59:57.209Z,32.72
2022-09-07T15:02:36.193Z,32.88
2022-09-07T15:05:23.066Z,33.43
2022-09-07T15:07:57.940Z,33.51
2022-09-07T15:10:35.178Z,33.37
2022-09-07T15:13:07.114Z,32.58
2022-09-07T15:15:40.313Z,33.29
2022-09-07T15:18:53.316Z,32.68
2022-09-07T15:21:28.369Z,33.09
2022-09-07T15:23:59.595Z,32.69
2022-09-07T15:29:12.857Z,33.21
2022-09-07T15:31:49.737Z,33.61
2022-09-07T15:34:20.029Z,33.58
2022-09-07T15:36:52.941Z,33.93
2022-09-07T15:39:25.807Z,33.98
2022-09-07T15:41:55.777Z,33.98
2022-09-07T15:44:28.059Z,32.97
2022-09-07T15:49:29.137Z,33.50
2022-09-07T15:52:06.631Z,32.91
2022-09-07T15:54:31.105Z,32.71
2022-09-07T15:59:33.461Z,32.97
2022-09-07T16:02:03.358Z,32.86
2022-09-07T16:04:33.322Z,32.73
2022-09-07T16:07:03.049Z,32.47
2022-09-07T16:09:32.764Z,32.01
2022-09-07T16:14:35.111Z,32.77
2022-09-07T16:19:40.633Z,33.15
2022-09-07T16:22:09.961Z,33.74
2022-09-07T16:24:40.304Z,34.63
2022-09-07T16:27:10.704Z,34.99
2022-09-07T16:29:40.254Z,35.53
2022-09-07T16:34:42.829Z,35.69
2022-09-07T16:37:12.663Z,35.17
2022-09-07T16:39:42.807Z,35.17
2022-09-07T16:42:12.667Z,35.46
2022-09-07T16:44:42.670Z,36.43
2022-09-07T16:47:12.738Z,36.02
2022-09-07T16:49:42.461Z,36.43
2022-09-07T16:52:12.194Z,37.06
2022-09-07T16:54:41.978Z,36.90
2022-09-07T16:57:11.722Z,36.88
2022-09-07T16:59:41.455Z,37.47
2022-09-07T17:02:18.479Z,37.41
2022-09-07T17:04:48.032Z,38.39
2022-09-07T17:07:17.756Z,38.13
2022-09-07T17:09:47.473Z,38.28
2022-09-07T17:12:16.933Z,38.28
2022-09-07T17:14:46.647Z,37.90
2022-09-07T17:17:16.414Z,38.73
2022-09-07T17:19:46.132Z,38.73
2022-09-07T17:22:16.200Z,39.35
2022-09-07T17:24:46.454Z,40.13
2022-09-07T17:27:17.112Z,40.04
2022-09-07T17:29:46.863Z,40.04
2022-09-07T17:32:25.039Z,40.67
2022-09-07T17:34:48.529Z,40.68
2022-09-07T17:37:18.253Z,40.80
2022-09-07T17:39:48.118Z,41.15
2022-09-07T17:42:17.954Z,41.15
2022-09-07T17:44:52.794Z,41.46
2022-09-07T17:47:19.089Z,41.69
2022-09-07T17:49:48.818Z,41.88
2022-09-07T17:52:18.539Z,41.95
2022-09-07T17:54:48.808Z,43.00
2022-09-07T17:57:18.241Z,43.00
2022-09-07T18:02:21.072Z,43.47
2022-09-07T18:04:50.921Z,43.29
2022-09-07T18:07:20.597Z,43.70
2022-09-07T18:09:50.333Z,43.81
2022-09-07T18:12:20.074Z,45.11
2022-09-07T18:14:49.801Z,45.11
2022-09-07T18:17:19.815Z,44.77
2022-09-07T18:19:49.544Z,45.56
2022-09-07T18:22:19.451Z,44.73
2022-09-07T18:24:50.848Z,44.73
2022-09-07T18:27:21.321Z,44.35
2022-09-07T18:29:51.047Z,44.87
2022-09-07T18:32:20.477Z,46.07
2022-09-07T18:34:50.868Z,46.11
2022-09-07T18:37:20.771Z,45.72
2022-09-07T18:39:50.563Z,46.06
2022-09-07T18:42:20.042Z,46.09
2022-09-07T18:47:27.241Z,46.86
2022-09-07T18:49:52.765Z,46.32
2022-09-07T18:54:54.825Z,48.03
2022-09-07T18:57:25.137Z,48.03
2022-09-07T18:59:54.935Z,48.00
2022-09-07T19:02:24.802Z,48.21
2022-09-07T19:07:29.542Z,47.84
2022-09-07T19:09:58.136Z,48.43
2022-09-07T19:12:27.790Z,48.43
2022-09-07T19:14:57.513Z,48.43
2022-09-07T19:17:27.537Z,48.75
2022-09-07T19:19:57.624Z,48.96
2022-09-07T19:22:27.612Z,49.27
2022-09-07T19:24:57.643Z,50.03
2022-09-07T19:27:27.732Z,50.33
2022-09-07T19:29:57.461Z,50.44
2022-09-07T19:32:26.910Z,50.94
2022-09-07T19:34:56.637Z,50.85
2022-09-07T19:37:28.363Z,51.16
2022-09-07T19:39:58.799Z,51.17
2022-09-07T19:42:28.729Z,51.33
2022-09-07T19:44:58.635Z,51.60
2022-09-07T19:47:28.729Z,51.93
2022-09-07T19:49:58.464Z,51.92
2022-09-07T19:52:28.182Z,52.04
2022-09-07T19:54:59.546Z,52.67
2022-09-07T19:57:29.337Z,52.67
2022-09-07T20:00:00.141Z,52.16
2022-09-07T20:02:29.863Z,52.45
2022-09-07T20:04:59.587Z,52.41
2022-09-07T20:07:29.323Z,52.64
2022-09-07T20:09:59.039Z,52.59
2022-09-07T20:12:28.767Z,52.26
2022-09-07T20:14:58.491Z,52.56
2022-09-07T20:17:34.449Z,52.36
2022-09-07T20:20:00.307Z,52.25
2022-09-07T20:22:31.301Z,52.66
2022-09-07T20:25:01.029Z,53.14
2022-09-07T20:27:30.923Z,53.24
2022-09-07T20:30:00.951Z,53.74
2022-09-07T20:32:31.044Z,54.01
2022-09-07T20:35:01.563Z,53.91
2022-09-07T20:37:31.581Z,54.33
2022-09-07T20:40:01.778Z,54.10
2022-09-07T20:42:31.535Z,54.10
2022-09-07T20:45:02.206Z,54.41
2022-09-07T20:47:32.017Z,54.66
2022-09-07T20:50:01.746Z,55.20
2022-09-07T20:52:31.538Z,54.99
2022-09-07T20:55:01.551Z,55.56
2022-09-07T20:57:31.579Z,55.65
2022-09-07T21:00:01.679Z,55.27
2022-09-07T21:02:32.635Z,55.77
2022-09-07T21:05:02.355Z,55.67
2022-09-07T21:07:32.082Z,55.97
2022-09-07T21:10:06.042Z,55.99
2022-09-07T21:12:33.708Z,55.70
2022-09-07T21:15:03.645Z,55.37
2022-09-07T21:17:33.760Z,56.23
2022-09-07T21:20:03.827Z,55.94
2022-09-07T21:22:33.549Z,55.82
2022-09-07T21:25:03.578Z,55.76
2022-09-07T21:27:38.219Z,55.76
2022-09-07T21:30:08.861Z,55.76
2022-09-07T21:32:40.258Z,55.61
2022-09-07T21:35:13.061Z,55.86
2022-09-07T21:37:42.871Z,56.17
2022-09-07T21:40:13.523Z,55.77
2022-09-07T21:42:43.231Z,55.77
2022-09-07T21:45:12.952Z,56.43
2022-09-07T21:47:42.673Z,56.43
2022-09-07T21:50:14.200Z,56.79
2022-09-07T21:52:43.922Z,56.81
2022-09-07T21:55:13.648Z,55.90
2022-09-07T21:57:43.680Z,56.01
2022-09-07T22:00:15.998Z,55.98
2022-09-07T22:02:45.787Z,56.23
2022-09-07T22:05:15.641Z,56.20
2022-09-07T22:07:45.099Z,56.43
2022-09-07T22:10:15.972Z,56.29
2022-09-07T22:12:45.693Z,56.37
2022-09-07T22:15:15.484Z,56.59
2022-09-07T22:17:46.388Z,57.07
2022-09-07T22:20:16.238Z,57.04
2022-09-07T22:22:46.427Z,56.25
2022-09-07T22:25:16.216Z,56.77
2022-09-07T22:27:45.948Z,56.78
2022-09-07T22:30:15.821Z,57.37
2022-09-07T22:32:49.245Z,57.57
2022-09-07T22:35:20.058Z,57.34
2022-09-07T22:37:50.482Z,56.96
2022-09-07T22:40:19.982Z,56.56
2022-09-07T22:42:49.693Z,56.52
2022-09-07T22:45:19.516Z,57.02
2022-09-07T22:47:49.263Z,57.12
2022-09-07T22:50:20.235Z,56.96
2022-09-07T22:52:50.317Z,56.89
2022-09-07T22:55:19.757Z,57.41
2022-09-07T22:57:49.482Z,57.56
2022-09-07T23:00:19.122Z,57.92
2022-09-07T23:02:49.219Z,57.41
2022-09-07T23:05:18.720Z,57.69
2022-09-07T23:07:49.812Z,57.31
2022-09-07T23:10:19.704Z,57.84
2022-09-07T23:12:49.494Z,56.88
2022-09-07T23:15:19.212Z,57.70
2022-09-07T23:17:48.937Z,57.99
2022-09-07T23:20:18.727Z,57.36
2022-09-07T23:22:48.884Z,57.33
2022-09-07T23:25:18.653Z,57.86
2022-09-07T23:27:48.860Z,57.83
2022-09-07T23:30:18.771Z,58.07
2022-09-07T23:32:48.215Z,58.13
2022-09-07T23:35:17.895Z,58.13
2022-09-07T23:37:47.950Z,58.87
2022-09-07T23:40:17.943Z,58.89
2022-09-07T23:42:48.404Z,59.02
2022-09-07T23:45:18.107Z,59.16
2022-09-07T23:47:47.829Z,59.44
2022-09-07T23:50:17.797Z,58.83
2022-09-07T23:52:47.389Z,59.22
2022-09-07T23:55:17.202Z,58.92
2022-09-07T23:57:47.061Z,58.92
